sensor_id;sensor_type;location;lat;lon;timestamp;P1;durP1;ratioP1;P2;durP2;ratioP2
59390;SDS011;53405;57.012;40.984;2024-01-30T00:02:20;39.90;;;23.92;;
59390;SDS011;53405;57.012;40.984;2024-01-30T00:04:47;38.53;;;25.67;;
59390;SDS011;53405;57.012;40.984;2024-01-30T00:07:16;41.45;;;26.05;;
59390;SDS011;53405;57.012;40.984;2024-01-30T00:09:46;43.40;;;27.70;;
59390;SDS011;53405;57.012;40.984;2024-01-30T00:12:15;51.20;;;34.00;;
59390;SDS011;53405;57.012;40.984;2024-01-30T00:14:42;44.22;;;26.95;;
59390;SDS011;53405;57.012;40.984;2024-01-30T00:17:13;44.38;;;25.83;;
59390;SDS011;53405;57.012;40.984;2024-01-30T00:19:40;41.83;;;26.38;;
59390;SDS011;53405;57.012;40.984;2024-01-30T00:22:08;50.20;;;35.35;;
59390;SDS011;53405;57.012;40.984;2024-01-30T00:24:36;42.28;;;28.40;;
59390;SDS011;53405;57.012;40.984;2024-01-30T00:27:04;38.13;;;23.75;;
59390;SDS011;53405;57.012;40.984;2024-01-30T00:29:31;43.95;;;31.02;;
59390;SDS011;53405;57.012;40.984;2024-01-30T00:32:01;33.88;;;22.40;;
59390;SDS011;53405;57.012;40.984;2024-01-30T00:34:28;46.65;;;28.08;;
59390;SDS011;53405;57.012;40.984;2024-01-30T00:36:56;34.03;;;20.58;;
59390;SDS011;53405;57.012;40.984;2024-01-30T00:39:23;45.45;;;25.88;;
59390;SDS011;53405;57.012;40.984;2024-01-30T00:41:51;49.58;;;31.65;;
59390;SDS011;53405;57.012;40.984;2024-01-30T00:44:18;50.05;;;31.30;;
59390;SDS011;53405;57.012;40.984;2024-01-30T00:46:46;58.72;;;37.25;;
59390;SDS011;53405;57.012;40.984;2024-01-30T00:49:14;48.22;;;30.80;;
59390;SDS011;53405;57.012;40.984;2024-01-30T00:51:42;58.25;;;37.65;;
59390;SDS011;53405;57.012;40.984;2024-01-30T00:54:10;64.72;;;40.60;;
59390;SDS011;53405;57.012;40.984;2024-01-30T00:56:37;59.20;;;34.63;;
59390;SDS011;53405;57.012;40.984;2024-01-30T00:59:06;49.60;;;31.85;;
59390;SDS011;53405;57.012;40.984;2024-01-30T01:01:33;58.72;;;34.97;;
59390;SDS011;53405;57.012;40.984;2024-01-30T01:04:01;49.30;;;31.63;;
59390;SDS011;53405;57.012;40.984;2024-01-30T01:06:29;48.03;;;29.67;;
59390;SDS011;53405;57.012;40.984;2024-01-30T01:08:57;45.17;;;27.17;;
59390;SDS011;53405;57.012;40.984;2024-01-30T01:11:28;38.95;;;23.15;;
59390;SDS011;53405;57.012;40.984;2024-01-30T01:13:56;34.40;;;22.05;;
59390;SDS011;53405;57.012;40.984;2024-01-30T01:16:24;37.05;;;22.55;;
59390;SDS011;53405;57.012;40.984;2024-01-30T01:18:52;21.42;;;12.43;;
59390;SDS011;53405;57.012;40.984;2024-01-30T01:21:20;19.13;;;10.32;;
59390;SDS011;53405;57.012;40.984;2024-01-30T01:23:47;18.23;;;11.05;;
59390;SDS011;53405;57.012;40.984;2024-01-30T01:26:15;14.82;;;8.60;;
59390;SDS011;53405;57.012;40.984;2024-01-30T01:28:42;12.85;;;6.72;;
59390;SDS011;53405;57.012;40.984;2024-01-30T01:31:10;9.05;;;4.82;;
59390;SDS011;53405;57.012;40.984;2024-01-30T01:33:37;11.05;;;6.38;;
59390;SDS011;53405;57.012;40.984;2024-01-30T01:36:05;11.25;;;6.53;;
59390;SDS011;53405;57.012;40.984;2024-01-30T01:38:33;12.05;;;6.00;;
59390;SDS011;53405;57.012;40.984;2024-01-30T01:41:01;10.85;;;5.93;;
59390;SDS011;53405;57.012;40.984;2024-01-30T01:43:29;8.88;;;4.93;;
59390;SDS011;53405;57.012;40.984;2024-01-30T01:45:57;10.68;;;5.90;;
59390;SDS011;53405;57.012;40.984;2024-01-30T01:48:25;9.52;;;5.32;;
59390;SDS011;53405;57.012;40.984;2024-01-30T01:50:53;9.52;;;5.53;;
59390;SDS011;53405;57.012;40.984;2024-01-30T01:53:21;10.65;;;5.72;;
59390;SDS011;53405;57.012;40.984;2024-01-30T01:55:49;9.55;;;5.00;;
59390;SDS011;53405;57.012;40.984;2024-01-30T01:58:17;10.80;;;5.70;;
59390;SDS011;53405;57.012;40.984;2024-01-30T02:00:47;10.57;;;5.72;;
59390;SDS011;53405;57.012;40.984;2024-01-30T02:03:15;11.63;;;5.93;;
59390;SDS011;53405;57.012;40.984;2024-01-30T02:05:50;12.00;;;5.93;;
59390;SDS011;53405;57.012;40.984;2024-01-30T02:08:18;10.82;;;5.93;;
59390;SDS011;53405;57.012;40.984;2024-01-30T02:10:45;10.65;;;5.18;;
59390;SDS011;53405;57.012;40.984;2024-01-30T02:13:13;9.30;;;5.35;;
59390;SDS011;53405;57.012;40.984;2024-01-30T02:15:41;11.13;;;5.60;;
59390;SDS011;53405;57.012;40.984;2024-01-30T02:18:10;11.80;;;5.25;;
59390;SDS011;53405;57.012;40.984;2024-01-30T02:20:58;11.48;;;5.50;;
59390;SDS011;53405;57.012;40.984;2024-01-30T02:23:29;11.05;;;6.03;;
59390;SDS011;53405;57.012;40.984;2024-01-30T02:26:00;11.73;;;5.93;;
59390;SDS011;53405;57.012;40.984;2024-01-30T02:28:28;10.55;;;5.60;;
59390;SDS011;53405;57.012;40.984;2024-01-30T02:30:55;8.23;;;4.53;;
59390;SDS011;53405;57.012;40.984;2024-01-30T02:33:23;9.20;;;4.80;;
59390;SDS011;53405;57.012;40.984;2024-01-30T02:35:51;9.73;;;5.25;;
59390;SDS011;53405;57.012;40.984;2024-01-30T02:38:18;10.23;;;5.80;;
59390;SDS011;53405;57.012;40.984;2024-01-30T02:40:46;11.02;;;5.20;;
59390;SDS011;53405;57.012;40.984;2024-01-30T02:43:14;9.00;;;5.35;;
59390;SDS011;53405;57.012;40.984;2024-01-30T02:45:42;11.30;;;5.88;;
59390;SDS011;53405;57.012;40.984;2024-01-30T02:48:10;7.40;;;3.55;;
59390;SDS011;53405;57.012;40.984;2024-01-30T02:50:37;9.52;;;5.38;;
59390;SDS011;53405;57.012;40.984;2024-01-30T02:53:05;10.27;;;4.40;;
59390;SDS011;53405;57.012;40.984;2024-01-30T02:55:33;7.38;;;3.53;;
59390;SDS011;53405;57.012;40.984;2024-01-30T02:58:00;11.05;;;4.78;;
59390;SDS011;53405;57.012;40.984;2024-01-30T03:00:28;10.80;;;4.97;;
59390;SDS011;53405;57.012;40.984;2024-01-30T03:02:56;8.45;;;5.00;;
59390;SDS011;53405;57.012;40.984;2024-01-30T03:05:23;8.82;;;4.72;;
59390;SDS011;53405;57.012;40.984;2024-01-30T03:07:52;8.90;;;4.85;;
59390;SDS011;53405;57.012;40.984;2024-01-30T03:10:20;8.20;;;4.45;;
59390;SDS011;53405;57.012;40.984;2024-01-30T03:12:48;10.45;;;4.97;;
59390;SDS011;53405;57.012;40.984;2024-01-30T03:15:15;12.88;;;5.20;;
59390;SDS011;53405;57.012;40.984;2024-01-30T03:17:43;10.10;;;5.22;;
59390;SDS011;53405;57.012;40.984;2024-01-30T03:20:11;9.90;;;5.45;;
59390;SDS011;53405;57.012;40.984;2024-01-30T03:22:38;10.02;;;5.53;;
59390;SDS011;53405;57.012;40.984;2024-01-30T03:25:06;10.38;;;5.05;;
59390;SDS011;53405;57.012;40.984;2024-01-30T03:27:34;9.45;;;4.68;;
59390;SDS011;53405;57.012;40.984;2024-01-30T03:30:02;9.40;;;4.97;;
59390;SDS011;53405;57.012;40.984;2024-01-30T03:32:30;9.18;;;5.13;;
59390;SDS011;53405;57.012;40.984;2024-01-30T03:34:58;9.18;;;5.50;;
59390;SDS011;53405;57.012;40.984;2024-01-30T03:37:26;10.48;;;5.93;;
59390;SDS011;53405;57.012;40.984;2024-01-30T03:39:54;8.55;;;4.57;;
59390;SDS011;53405;57.012;40.984;2024-01-30T03:42:22;9.32;;;4.68;;
59390;SDS011;53405;57.012;40.984;2024-01-30T03:44:50;11.07;;;5.75;;
59390;SDS011;53405;57.012;40.984;2024-01-30T03:47:21;9.98;;;5.53;;
59390;SDS011;53405;57.012;40.984;2024-01-30T03:49:48;10.07;;;5.60;;
59390;SDS011;53405;57.012;40.984;2024-01-30T03:52:17;12.65;;;5.75;;
59390;SDS011;53405;57.012;40.984;2024-01-30T03:54:50;12.05;;;5.30;;
59390;SDS011;53405;57.012;40.984;2024-01-30T03:57:18;11.10;;;5.95;;
59390;SDS011;53405;57.012;40.984;2024-01-30T03:59:45;11.13;;;6.50;;
59390;SDS011;53405;57.012;40.984;2024-01-30T04:02:13;11.55;;;5.50;;
59390;SDS011;53405;57.012;40.984;2024-01-30T04:04:41;10.68;;;5.35;;
59390;SDS011;53405;57.012;40.984;2024-01-30T04:07:09;11.05;;;6.32;;
59390;SDS011;53405;57.012;40.984;2024-01-30T04:09:38;12.30;;;5.65;;
59390;SDS011;53405;57.012;40.984;2024-01-30T04:12:06;11.27;;;5.35;;
59390;SDS011;53405;57.012;40.984;2024-01-30T04:14:33;11.63;;;6.32;;
59390;SDS011;53405;57.012;40.984;2024-01-30T04:17:02;12.97;;;6.10;;
59390;SDS011;53405;57.012;40.984;2024-01-30T04:19:30;13.88;;;6.07;;
59390;SDS011;53405;57.012;40.984;2024-01-30T04:21:58;10.10;;;5.80;;
59390;SDS011;53405;57.012;40.984;2024-01-30T04:24:26;11.60;;;6.18;;
59390;SDS011;53405;57.012;40.984;2024-01-30T04:26:53;10.55;;;5.30;;
59390;SDS011;53405;57.012;40.984;2024-01-30T04:29:21;11.07;;;5.90;;
59390;SDS011;53405;57.012;40.984;2024-01-30T04:31:50;14.23;;;7.10;;
59390;SDS011;53405;57.012;40.984;2024-01-30T04:34:17;11.98;;;6.35;;
59390;SDS011;53405;57.012;40.984;2024-01-30T04:36:45;12.23;;;6.88;;
59390;SDS011;53405;57.012;40.984;2024-01-30T04:39:14;12.90;;;7.22;;
59390;SDS011;53405;57.012;40.984;2024-01-30T04:41:42;11.93;;;5.60;;
59390;SDS011;53405;57.012;40.984;2024-01-30T04:44:09;13.70;;;7.13;;
59390;SDS011;53405;57.012;40.984;2024-01-30T04:46:37;11.98;;;7.15;;
59390;SDS011;53405;57.012;40.984;2024-01-30T04:51:58;12.73;;;6.85;;
59390;SDS011;53405;57.012;40.984;2024-01-30T04:54:26;10.75;;;6.47;;
59390;SDS011;53405;57.012;40.984;2024-01-30T04:56:53;16.38;;;6.68;;
59390;SDS011;53405;57.012;40.984;2024-01-30T04:59:21;11.98;;;6.22;;
59390;SDS011;53405;57.012;40.984;2024-01-30T05:01:48;11.35;;;6.43;;
59390;SDS011;53405;57.012;40.984;2024-01-30T05:04:16;14.60;;;6.82;;
59390;SDS011;53405;57.012;40.984;2024-01-30T05:06:44;15.90;;;7.13;;
59390;SDS011;53405;57.012;40.984;2024-01-30T05:09:12;9.93;;;5.43;;
59390;SDS011;53405;57.012;40.984;2024-01-30T05:11:40;11.55;;;6.03;;
59390;SDS011;53405;57.012;40.984;2024-01-30T05:14:08;17.80;;;7.07;;
59390;SDS011;53405;57.012;40.984;2024-01-30T05:16:36;14.20;;;6.90;;
59390;SDS011;53405;57.012;40.984;2024-01-30T05:19:04;12.85;;;7.15;;
59390;SDS011;53405;57.012;40.984;2024-01-30T05:21:32;12.02;;;6.97;;
59390;SDS011;53405;57.012;40.984;2024-01-30T05:24:00;13.77;;;7.00;;
59390;SDS011;53405;57.012;40.984;2024-01-30T05:26:27;15.63;;;6.90;;
59390;SDS011;53405;57.012;40.984;2024-01-30T05:28:55;13.18;;;6.88;;
59390;SDS011;53405;57.012;40.984;2024-01-30T05:31:24;16.00;;;6.28;;
59390;SDS011;53405;57.012;40.984;2024-01-30T05:33:54;14.02;;;6.57;;
59390;SDS011;53405;57.012;40.984;2024-01-30T05:36:22;13.18;;;6.63;;
59390;SDS011;53405;57.012;40.984;2024-01-30T05:38:49;10.30;;;5.53;;
59390;SDS011;53405;57.012;40.984;2024-01-30T05:41:17;14.00;;;6.90;;
59390;SDS011;53405;57.012;40.984;2024-01-30T05:43:44;12.63;;;6.88;;
59390;SDS011;53405;57.012;40.984;2024-01-30T05:46:12;13.88;;;6.60;;
59390;SDS011;53405;57.012;40.984;2024-01-30T05:48:40;12.80;;;6.72;;
59390;SDS011;53405;57.012;40.984;2024-01-30T05:51:08;15.40;;;7.18;;
59390;SDS011;53405;57.012;40.984;2024-01-30T05:53:36;13.88;;;7.25;;
59390;SDS011;53405;57.012;40.984;2024-01-30T05:56:04;13.02;;;6.65;;
59390;SDS011;53405;57.012;40.984;2024-01-30T05:58:32;14.77;;;8.25;;
59390;SDS011;53405;57.012;40.984;2024-01-30T06:01:00;14.77;;;7.07;;
59390;SDS011;53405;57.012;40.984;2024-01-30T06:03:27;31.70;;;18.38;;
59390;SDS011;53405;57.012;40.984;2024-01-30T06:05:55;16.70;;;7.07;;
59390;SDS011;53405;57.012;40.984;2024-01-30T06:08:23;16.30;;;6.53;;
59390;SDS011;53405;57.012;40.984;2024-01-30T06:10:50;13.05;;;6.18;;
59390;SDS011;53405;57.012;40.984;2024-01-30T06:13:18;13.60;;;6.63;;
59390;SDS011;53405;57.012;40.984;2024-01-30T06:15:46;14.80;;;6.35;;
59390;SDS011;53405;57.012;40.984;2024-01-30T06:18:13;14.98;;;6.60;;
59390;SDS011;53405;57.012;40.984;2024-01-30T06:20:41;12.82;;;6.82;;
59390;SDS011;53405;57.012;40.984;2024-01-30T06:23:08;12.25;;;6.15;;
59390;SDS011;53405;57.012;40.984;2024-01-30T06:25:36;15.23;;;7.25;;
59390;SDS011;53405;57.012;40.984;2024-01-30T06:28:05;14.73;;;7.30;;
59390;SDS011;53405;57.012;40.984;2024-01-30T06:30:33;12.90;;;6.65;;
59390;SDS011;53405;57.012;40.984;2024-01-30T06:33:02;12.63;;;6.50;;
59390;SDS011;53405;57.012;40.984;2024-01-30T06:35:30;14.70;;;6.80;;
59390;SDS011;53405;57.012;40.984;2024-01-30T06:37:58;12.90;;;6.57;;
59390;SDS011;53405;57.012;40.984;2024-01-30T06:40:25;11.52;;;6.28;;
59390;SDS011;53405;57.012;40.984;2024-01-30T06:42:53;14.93;;;7.10;;
59390;SDS011;53405;57.012;40.984;2024-01-30T06:45:21;12.63;;;6.32;;
59390;SDS011;53405;57.012;40.984;2024-01-30T06:47:48;16.63;;;7.03;;
59390;SDS011;53405;57.012;40.984;2024-01-30T06:50:16;15.15;;;6.18;;
59390;SDS011;53405;57.012;40.984;2024-01-30T06:52:44;12.40;;;6.38;;
59390;SDS011;53405;57.012;40.984;2024-01-30T06:55:11;15.32;;;7.07;;
59390;SDS011;53405;57.012;40.984;2024-01-30T06:57:39;14.95;;;7.03;;
59390;SDS011;53405;57.012;40.984;2024-01-30T07:00:07;14.82;;;7.00;;
59390;SDS011;53405;57.012;40.984;2024-01-30T07:02:35;12.65;;;6.97;;
59390;SDS011;53405;57.012;40.984;2024-01-30T07:05:03;16.98;;;7.07;;
59390;SDS011;53405;57.012;40.984;2024-01-30T07:07:31;16.65;;;7.95;;
59390;SDS011;53405;57.012;40.984;2024-01-30T07:10:00;15.18;;;7.97;;
59390;SDS011;53405;57.012;40.984;2024-01-30T07:12:30;13.45;;;7.25;;
59390;SDS011;53405;57.012;40.984;2024-01-30T07:14:58;15.77;;;7.40;;
59390;SDS011;53405;57.012;40.984;2024-01-30T07:17:29;16.70;;;7.72;;
59390;SDS011;53405;57.012;40.984;2024-01-30T07:19:57;16.38;;;7.28;;
59390;SDS011;53405;57.012;40.984;2024-01-30T07:22:24;14.88;;;7.13;;
59390;SDS011;53405;57.012;40.984;2024-01-30T07:24:52;14.25;;;7.13;;
59390;SDS011;53405;57.012;40.984;2024-01-30T07:27:20;13.88;;;6.93;;
59390;SDS011;53405;57.012;40.984;2024-01-30T07:29:49;16.02;;;7.53;;
59390;SDS011;53405;57.012;40.984;2024-01-30T07:32:16;12.60;;;6.38;;
59390;SDS011;53405;57.012;40.984;2024-01-30T07:34:44;12.88;;;7.35;;
59390;SDS011;53405;57.012;40.984;2024-01-30T07:37:29;17.33;;;7.32;;
59390;SDS011;53405;57.012;40.984;2024-01-30T07:39:57;14.50;;;7.30;;
59390;SDS011;53405;57.012;40.984;2024-01-30T07:42:26;15.25;;;7.53;;
59390;SDS011;53405;57.012;40.984;2024-01-30T07:44:54;16.02;;;7.00;;
59390;SDS011;53405;57.012;40.984;2024-01-30T07:47:21;13.25;;;7.20;;
59390;SDS011;53405;57.012;40.984;2024-01-30T07:49:50;15.98;;;7.00;;
59390;SDS011;53405;57.012;40.984;2024-01-30T07:52:18;14.13;;;6.80;;
59390;SDS011;53405;57.012;40.984;2024-01-30T07:58:14;13.70;;;6.75;;
59390;SDS011;53405;57.012;40.984;2024-01-30T08:00:42;16.58;;;7.65;;
59390;SDS011;53405;57.012;40.984;2024-01-30T08:03:12;16.02;;;7.70;;
59390;SDS011;53405;57.012;40.984;2024-01-30T08:05:40;17.42;;;8.02;;
59390;SDS011;53405;57.012;40.984;2024-01-30T08:08:08;17.02;;;7.68;;
59390;SDS011;53405;57.012;40.984;2024-01-30T08:10:36;15.93;;;7.18;;
59390;SDS011;53405;57.012;40.984;2024-01-30T08:13:04;14.63;;;6.85;;
59390;SDS011;53405;57.012;40.984;2024-01-30T08:15:31;14.02;;;6.75;;
59390;SDS011;53405;57.012;40.984;2024-01-30T08:17:59;16.20;;;7.50;;
59390;SDS011;53405;57.012;40.984;2024-01-30T08:20:27;16.35;;;7.25;;
59390;SDS011;53405;57.012;40.984;2024-01-30T08:22:55;12.77;;;7.03;;
59390;SDS011;53405;57.012;40.984;2024-01-30T08:25:23;15.27;;;6.68;;
59390;SDS011;53405;57.012;40.984;2024-01-30T08:27:51;18.30;;;7.75;;
59390;SDS011;53405;57.012;40.984;2024-01-30T08:30:19;15.52;;;7.35;;
59390;SDS011;53405;57.012;40.984;2024-01-30T08:32:47;15.90;;;8.25;;
59390;SDS011;53405;57.012;40.984;2024-01-30T08:35:14;14.48;;;7.43;;
59390;SDS011;53405;57.012;40.984;2024-01-30T08:37:43;14.80;;;7.07;;
59390;SDS011;53405;57.012;40.984;2024-01-30T08:40:11;14.95;;;7.20;;
59390;SDS011;53405;57.012;40.984;2024-01-30T08:42:39;20.08;;;7.57;;
59390;SDS011;53405;57.012;40.984;2024-01-30T08:45:07;16.58;;;7.50;;
59390;SDS011;53405;57.012;40.984;2024-01-30T08:47:36;14.98;;;7.18;;
59390;SDS011;53405;57.012;40.984;2024-01-30T08:50:04;15.13;;;6.57;;
59390;SDS011;53405;57.012;40.984;2024-01-30T08:52:33;14.93;;;6.78;;
59390;SDS011;53405;57.012;40.984;2024-01-30T08:55:01;16.25;;;7.50;;
59390;SDS011;53405;57.012;40.984;2024-01-30T08:57:31;18.10;;;7.13;;
59390;SDS011;53405;57.012;40.984;2024-01-30T08:59:58;12.27;;;6.10;;
59390;SDS011;53405;57.012;40.984;2024-01-30T09:02:26;16.23;;;6.97;;
59390;SDS011;53405;57.012;40.984;2024-01-30T09:04:54;13.70;;;7.18;;
59390;SDS011;53405;57.012;40.984;2024-01-30T09:07:22;15.32;;;7.03;;
59390;SDS011;53405;57.012;40.984;2024-01-30T09:09:51;14.60;;;6.53;;
59390;SDS011;53405;57.012;40.984;2024-01-30T09:12:33;16.70;;;6.53;;
59390;SDS011;53405;57.012;40.984;2024-01-30T09:15:01;13.77;;;7.07;;
59390;SDS011;53405;57.012;40.984;2024-01-30T09:17:30;12.60;;;6.97;;
59390;SDS011;53405;57.012;40.984;2024-01-30T09:19:58;17.10;;;6.50;;
59390;SDS011;53405;57.012;40.984;2024-01-30T09:22:26;14.30;;;5.85;;
59390;SDS011;53405;57.012;40.984;2024-01-30T09:24:53;14.82;;;6.95;;
59390;SDS011;53405;57.012;40.984;2024-01-30T09:27:21;17.20;;;6.72;;
59390;SDS011;53405;57.012;40.984;2024-01-30T09:29:48;17.75;;;7.15;;
59390;SDS011;53405;57.012;40.984;2024-01-30T09:32:17;15.18;;;7.50;;
59390;SDS011;53405;57.012;40.984;2024-01-30T09:34:45;14.05;;;7.15;;
59390;SDS011;53405;57.012;40.984;2024-01-30T09:37:12;14.57;;;6.50;;
59390;SDS011;53405;57.012;40.984;2024-01-30T09:39:42;15.77;;;6.28;;
59390;SDS011;53405;57.012;40.984;2024-01-30T09:42:11;14.65;;;5.95;;
59390;SDS011;53405;57.012;40.984;2024-01-30T09:44:46;15.35;;;6.70;;
59390;SDS011;53405;57.012;40.984;2024-01-30T09:47:17;13.73;;;6.20;;
59390;SDS011;53405;57.012;40.984;2024-01-30T09:49:45;15.05;;;7.25;;
59390;SDS011;53405;57.012;40.984;2024-01-30T09:52:15;14.40;;;7.20;;
59390;SDS011;53405;57.012;40.984;2024-01-30T09:54:43;16.38;;;7.05;;
59390;SDS011;53405;57.012;40.984;2024-01-30T09:57:12;14.93;;;6.03;;
59390;SDS011;53405;57.012;40.984;2024-01-30T09:59:41;16.23;;;7.25;;
59390;SDS011;53405;57.012;40.984;2024-01-30T10:02:10;15.95;;;6.70;;
59390;SDS011;53405;57.012;40.984;2024-01-30T10:04:38;15.43;;;6.78;;
59390;SDS011;53405;57.012;40.984;2024-01-30T10:07:06;17.23;;;6.32;;
59390;SDS011;53405;57.012;40.984;2024-01-30T10:09:36;12.05;;;6.20;;
59390;SDS011;53405;57.012;40.984;2024-01-30T10:12:04;14.63;;;6.55;;
59390;SDS011;53405;57.012;40.984;2024-01-30T10:14:33;13.55;;;5.85;;
59390;SDS011;53405;57.012;40.984;2024-01-30T10:17:01;14.65;;;7.15;;
59390;SDS011;53405;57.012;40.984;2024-01-30T10:19:38;13.23;;;6.18;;
59390;SDS011;53405;57.012;40.984;2024-01-30T10:22:07;12.73;;;6.32;;
59390;SDS011;53405;57.012;40.984;2024-01-30T10:24:35;13.02;;;6.13;;
59390;SDS011;53405;57.012;40.984;2024-01-30T10:27:05;15.00;;;6.63;;
59390;SDS011;53405;57.012;40.984;2024-01-30T10:32:01;19.38;;;7.20;;
59390;SDS011;53405;57.012;40.984;2024-01-30T10:34:30;13.80;;;6.10;;
59390;SDS011;53405;57.012;40.984;2024-01-30T10:37:08;14.68;;;6.45;;
59390;SDS011;53405;57.012;40.984;2024-01-30T10:39:43;14.50;;;6.97;;
59390;SDS011;53405;57.012;40.984;2024-01-30T10:45:01;13.85;;;5.95;;
59390;SDS011;53405;57.012;40.984;2024-01-30T10:47:37;14.18;;;5.75;;
59390;SDS011;53405;57.012;40.984;2024-01-30T10:50:05;10.43;;;4.70;;
59390;SDS011;53405;57.012;40.984;2024-01-30T10:55:03;12.30;;;5.72;;
59390;SDS011;53405;57.012;40.984;2024-01-30T10:57:36;12.55;;;5.80;;
59390;SDS011;53405;57.012;40.984;2024-01-30T11:00:08;13.30;;;6.18;;
59390;SDS011;53405;57.012;40.984;2024-01-30T11:02:41;14.10;;;6.30;;
59390;SDS011;53405;57.012;40.984;2024-01-30T11:05:12;13.60;;;5.97;;
59390;SDS011;53405;57.012;40.984;2024-01-30T11:07:43;11.82;;;5.10;;
59390;SDS011;53405;57.012;40.984;2024-01-30T11:10:11;13.40;;;5.97;;
59390;SDS011;53405;57.012;40.984;2024-01-30T11:12:43;17.58;;;6.20;;
59390;SDS011;53405;57.012;40.984;2024-01-30T11:15:15;10.90;;;5.70;;
59390;SDS011;53405;57.012;40.984;2024-01-30T11:17:50;14.98;;;6.05;;
59390;SDS011;53405;57.012;40.984;2024-01-30T11:20:21;12.00;;;6.07;;
59390;SDS011;53405;57.012;40.984;2024-01-30T11:22:51;15.88;;;6.18;;
59390;SDS011;53405;57.012;40.984;2024-01-30T11:25:20;10.23;;;5.75;;
59390;SDS011;53405;57.012;40.984;2024-01-30T11:27:51;12.52;;;6.07;;
59390;SDS011;53405;57.012;40.984;2024-01-30T11:30:27;15.15;;;5.93;;
59390;SDS011;53405;57.012;40.984;2024-01-30T11:35:45;13.23;;;5.85;;
59390;SDS011;53405;57.012;40.984;2024-01-30T11:38:14;14.00;;;6.45;;
59390;SDS011;53405;57.012;40.984;2024-01-30T11:40:42;13.07;;;5.73;;
59390;SDS011;53405;57.012;40.984;2024-01-30T11:43:11;12.43;;;5.28;;
59390;SDS011;53405;57.012;40.984;2024-01-30T11:45:39;12.52;;;5.88;;
59390;SDS011;53405;57.012;40.984;2024-01-30T11:48:08;9.75;;;3.92;;
59390;SDS011;53405;57.012;40.984;2024-01-30T11:50:39;12.77;;;6.03;;
59390;SDS011;53405;57.012;40.984;2024-01-30T11:55:36;14.45;;;5.47;;
59390;SDS011;53405;57.012;40.984;2024-01-30T11:58:05;12.20;;;5.50;;
59390;SDS011;53405;57.012;40.984;2024-01-30T12:00:33;14.35;;;5.45;;
59390;SDS011;53405;57.012;40.984;2024-01-30T12:03:02;12.35;;;5.85;;
59390;SDS011;53405;57.012;40.984;2024-01-30T12:05:32;13.20;;;5.53;;
59390;SDS011;53405;57.012;40.984;2024-01-30T12:08:00;14.80;;;5.95;;
59390;SDS011;53405;57.012;40.984;2024-01-30T12:10:29;13.65;;;6.15;;
59390;SDS011;53405;57.012;40.984;2024-01-30T12:12:57;15.73;;;6.10;;
59390;SDS011;53405;57.012;40.984;2024-01-30T12:15:26;13.68;;;6.05;;
59390;SDS011;53405;57.012;40.984;2024-01-30T12:18:03;13.70;;;5.15;;
59390;SDS011;53405;57.012;40.984;2024-01-30T12:20:32;13.20;;;5.47;;
59390;SDS011;53405;57.012;40.984;2024-01-30T12:22:59;12.40;;;5.38;;
59390;SDS011;53405;57.012;40.984;2024-01-30T12:25:27;12.82;;;5.93;;
59390;SDS011;53405;57.012;40.984;2024-01-30T12:27:55;12.43;;;5.63;;
59390;SDS011;53405;57.012;40.984;2024-01-30T12:30:23;11.15;;;5.95;;
59390;SDS011;53405;57.012;40.984;2024-01-30T12:32:51;14.60;;;6.32;;
59390;SDS011;53405;57.012;40.984;2024-01-30T12:35:19;13.32;;;6.32;;
59390;SDS011;53405;57.012;40.984;2024-01-30T12:37:49;12.68;;;6.43;;
59390;SDS011;53405;57.012;40.984;2024-01-30T12:40:17;14.43;;;6.00;;
59390;SDS011;53405;57.012;40.984;2024-01-30T12:42:46;17.83;;;6.70;;
59390;SDS011;53405;57.012;40.984;2024-01-30T12:45:17;12.23;;;6.70;;
59390;SDS011;53405;57.012;40.984;2024-01-30T12:47:50;15.80;;;6.50;;
59390;SDS011;53405;57.012;40.984;2024-01-30T12:50:19;15.45;;;7.13;;
59390;SDS011;53405;57.012;40.984;2024-01-30T12:52:47;14.73;;;7.15;;
59390;SDS011;53405;57.012;40.984;2024-01-30T12:55:16;16.38;;;7.05;;
59390;SDS011;53405;57.012;40.984;2024-01-30T12:57:46;14.70;;;5.82;;
59390;SDS011;53405;57.012;40.984;2024-01-30T13:00:13;15.00;;;6.95;;
59390;SDS011;53405;57.012;40.984;2024-01-30T13:02:44;14.15;;;6.70;;
59390;SDS011;53405;57.012;40.984;2024-01-30T13:05:12;15.68;;;7.07;;
59390;SDS011;53405;57.012;40.984;2024-01-30T13:07:41;15.05;;;7.35;;
59390;SDS011;53405;57.012;40.984;2024-01-30T13:10:08;17.42;;;7.95;;
59390;SDS011;53405;57.012;40.984;2024-01-30T13:12:36;17.48;;;8.35;;
59390;SDS011;53405;57.012;40.984;2024-01-30T13:15:05;15.32;;;7.60;;
59390;SDS011;53405;57.012;40.984;2024-01-30T13:17:34;18.15;;;7.85;;
59390;SDS011;53405;57.012;40.984;2024-01-30T13:20:03;19.55;;;9.45;;
59390;SDS011;53405;57.012;40.984;2024-01-30T13:22:38;17.98;;;8.73;;
59390;SDS011;53405;57.012;40.984;2024-01-30T13:25:07;17.87;;;8.73;;
59390;SDS011;53405;57.012;40.984;2024-01-30T13:27:36;17.85;;;8.10;;
59390;SDS011;53405;57.012;40.984;2024-01-30T13:30:06;15.25;;;7.38;;
59390;SDS011;53405;57.012;40.984;2024-01-30T13:32:35;14.45;;;7.35;;
59390;SDS011;53405;57.012;40.984;2024-01-30T13:35:04;13.00;;;7.15;;
59390;SDS011;53405;57.012;40.984;2024-01-30T13:37:32;15.15;;;7.82;;
59390;SDS011;53405;57.012;40.984;2024-01-30T13:40:00;18.60;;;8.10;;
59390;SDS011;53405;57.012;40.984;2024-01-30T13:42:31;17.15;;;9.02;;
59390;SDS011;53405;57.012;40.984;2024-01-30T13:44:59;19.58;;;8.82;;
59390;SDS011;53405;57.012;40.984;2024-01-30T13:47:30;17.83;;;7.97;;
59390;SDS011;53405;57.012;40.984;2024-01-30T13:49:59;14.20;;;7.45;;
59390;SDS011;53405;57.012;40.984;2024-01-30T13:52:26;15.50;;;7.43;;
59390;SDS011;53405;57.012;40.984;2024-01-30T13:55:01;17.70;;;8.57;;
59390;SDS011;53405;57.012;40.984;2024-01-30T13:57:30;19.80;;;8.70;;
59390;SDS011;53405;57.012;40.984;2024-01-30T14:00:00;17.48;;;8.88;;
59390;SDS011;53405;57.012;40.984;2024-01-30T14:02:29;19.00;;;8.82;;
59390;SDS011;53405;57.012;40.984;2024-01-30T14:04:57;20.75;;;9.13;;
59390;SDS011;53405;57.012;40.984;2024-01-30T14:07:25;18.45;;;8.32;;
59390;SDS011;53405;57.012;40.984;2024-01-30T14:09:52;15.45;;;8.57;;
59390;SDS011;53405;57.012;40.984;2024-01-30T14:12:20;19.98;;;8.50;;
59390;SDS011;53405;57.012;40.984;2024-01-30T14:14:49;15.77;;;8.02;;
59390;SDS011;53405;57.012;40.984;2024-01-30T14:17:16;20.58;;;9.15;;
59390;SDS011;53405;57.012;40.984;2024-01-30T14:19:44;19.95;;;9.23;;
59390;SDS011;53405;57.012;40.984;2024-01-30T14:22:12;21.13;;;9.95;;
59390;SDS011;53405;57.012;40.984;2024-01-30T14:24:39;22.48;;;10.82;;
59390;SDS011;53405;57.012;40.984;2024-01-30T14:27:08;27.67;;;11.88;;
59390;SDS011;53405;57.012;40.984;2024-01-30T14:29:37;22.40;;;10.65;;
59390;SDS011;53405;57.012;40.984;2024-01-30T14:32:05;24.38;;;12.05;;
59390;SDS011;53405;57.012;40.984;2024-01-30T14:34:33;22.95;;;10.95;;
59390;SDS011;53405;57.012;40.984;2024-01-30T14:37:01;23.30;;;11.27;;
59390;SDS011;53405;57.012;40.984;2024-01-30T14:39:29;20.92;;;10.13;;
59390;SDS011;53405;57.012;40.984;2024-01-30T14:41:56;19.10;;;9.73;;
59390;SDS011;53405;57.012;40.984;2024-01-30T14:44:24;22.40;;;10.57;;
59390;SDS011;53405;57.012;40.984;2024-01-30T14:46:52;23.50;;;11.30;;
59390;SDS011;53405;57.012;40.984;2024-01-30T14:49:19;25.75;;;10.15;;